Time;durP1;ratioP1;P1;durP2;ratioP2;P2;SDS_P1;SDS_P2;PMS_P1;PMS_P2;Temp;Humidity;BMP_temperature;BMP_pressure;BME280_temperature;BME280_humidity;BME280_pressure;Samples;Min_cycle;Max_cycle;Signal;HPM_P1;HPM_P2
2022/09/13 00:01:00;;;;;;;11.20;5.80;;;;;;;19.28;100.00;100948.53;5072023;28;20349;-70
2022/09/13 00:03:27;;;;;;;8.38;6.13;;;;;;;19.31;100.00;100951.16;5071662;28;20022;-70
2022/09/13 00:05:52;;;;;;;9.93;5.65;;;;;;;19.31;100.00;100948.47;5072238;28;20440;-70
2022/09/13 00:08:18;;;;;;;8.25;5.72;;;;;;;19.30;100.00;100952.03;5077812;28;20148;-70
2022/09/13 00:10:44;;;;;;;8.75;5.93;;;;;;;19.30;100.00;100962.72;5084547;28;20027;-70
2022/09/13 00:13:11;;;;;;;8.27;5.78;;;;;;;19.25;100.00;100949.47;5071567;28;20028;-70
2022/09/13 00:15:45;;;;;;;9.70;5.60;;;;;;;19.23;100.00;100964.59;5069617;28;20044;-69
2022/09/13 00:18:11;;;;;;;6.75;5.55;;;;;;;19.20;100.00;100951.34;5071255;28;20025;-70
2022/09/13 00:20:37;;;;;;;15.95;5.60;;;;;;;19.18;100.00;100948.69;5071961;28;20089;-70
2022/09/13 00:23:02;;;;;;;6.68;5.72;;;;;;;19.17;100.00;100959.41;5074284;28;20024;-70
2022/09/13 00:25:28;;;;;;;9.35;6.07;;;;;;;19.18;100.00;100956.69;5091969;28;20024;-71
2022/09/13 00:27:53;;;;;;;9.88;6.40;;;;;;;19.17;100.00;100959.41;5072496;28;20020;-71
2022/09/13 00:30:18;;;;;;;10.52;6.45;;;;;;;19.15;100.00;100950.53;5073175;28;20070;-71
2022/09/13 00:32:44;;;;;;;8.05;6.82;;;;;;;19.18;100.00;100950.47;5072352;28;20024;-71
2022/09/13 00:35:09;;;;;;;9.00;7.57;;;;;;;19.13;100.00;100958.56;5072529;28;20032;-70
2022/09/13 00:37:34;;;;;;;10.85;7.97;;;;;;;19.14;100.00;100964.75;5071380;28;20064;-70
2022/09/13 00:40:00;;;;;;;13.30;8.35;;;;;;;19.12;100.00;100956.78;5074193;28;20024;-71
2022/09/13 00:42:28;;;;;;;18.95;7.90;;;;;;;19.12;100.00;100955.91;5071360;28;20357;-71
2022/09/13 00:45:05;;;;;;;9.95;6.90;;;;;;;19.09;100.00;100951.53;5073471;28;20426;-70
2022/09/13 00:47:42;;;;;;;10.90;6.43;;;;;;;19.11;100.00;100946.16;5071708;28;20111;-70
2022/09/13 00:50:15;;;;;;;12.13;7.47;;;;;;;19.11;100.00;100957.69;5071432;28;20387;-70
2022/09/13 00:52:44;;;;;;;9.38;7.30;;;;;;;19.12;100.00;100971.94;5072304;28;20020;-69
2022/09/13 00:55:40;;;;;;;11.57;8.27;;;;;;;19.08;100.00;100967.56;5072116;28;20024;-70
2022/09/13 00:58:12;;;;;;;11.50;8.20;;;;;;;19.03;100.00;100960.50;5061686;28;20415;-70
2022/09/13 01:00:38;;;;;;;11.52;8.15;;;;;;;19.03;100.00;100975.59;5085105;28;20532;-70
2022/09/13 01:03:10;;;;;;;10.65;7.68;;;;;;;19.00;100.00;100962.34;5072314;28;20077;-70
2022/09/13 01:05:47;;;;;;;12.00;8.57;;;;;;;18.94;100.00;100957.13;5072379;28;20484;-70
2022/09/13 01:08:21;;;;;;;10.57;7.88;;;;;;;18.93;100.00;100960.69;5070874;28;20040;-70
2022/09/13 01:10:50;;;;;;;10.52;7.25;;;;;;;18.92;100.00;100949.13;5085568;28;20016;-70
2022/09/13 01:13:21;;;;;;;9.60;6.78;;;;;;;18.91;100.00;100952.72;5072070;28;20541;-70
2022/09/13 01:15:47;;;;;;;13.00;7.50;;;;;;;18.92;100.00;100950.91;5074306;28;20066;-70
2022/09/13 01:18:13;;;;;;;10.65;7.70;;;;;;;18.90;100.00;100950.94;5053759;28;20111;-70
2022/09/13 01:21:05;;;;;;;10.65;6.93;;;;;;;18.90;100.00;100952.75;5085186;28;20028;-71
2022/09/13 01:23:43;;;;;;;12.05;7.28;;;;;;;18.86;100.00;100947.41;5061846;28;20506;-69
2022/09/13 01:26:48;;;;;;;15.13;7.40;;;;;;;18.85;100.00;100953.63;5079724;28;20028;-71
2022/09/13 01:29:19;;;;;;;9.13;6.80;;;;;;;18.81;100.00;100949.25;5069406;28;20120;-71
2022/09/13 01:31:47;;;;;;;11.18;7.18;;;;;;;18.76;100.00;100932.47;5086059;28;20040;-70
2022/09/13 01:34:27;;;;;;;12.85;7.18;;;;;;;18.78;100.00;100935.97;5078287;28;20425;-71
2022/09/13 01:37:00;;;;;;;7.70;6.07;;;;;;;18.77;100.00;100942.22;5073591;28;20036;-69
2022/09/13 01:39:44;;;;;;;12.40;7.20;;;;;;;18.76;100.00;100937.81;5075018;28;20037;-69
2022/09/13 01:42:18;;;;;;;;;;;;;;;18.74;100.00;100938.75;5074786;28;20020;-69
2022/09/13 01:45:05;;;;;;;8.70;6.45;;;;;;;18.74;100.00;100934.28;5078535;28;19951;-70
2022/09/13 01:47:43;;;;;;;8.63;6.13;;;;;;;18.72;100.00;100930.78;5075708;28;20036;-71
2022/09/13 01:50:22;;;;;;;8.63;6.32;;;;;;;18.70;100.00;100932.56;5083701;28;20111;-70
2022/09/13 01:53:01;;;;;;;12.85;6.63;;;;;;;18.69;100.00;100930.78;5076068;28;20028;-70
2022/09/13 01:55:32;;;;;;;9.52;6.20;;;;;;;18.67;100.00;100927.28;5076957;28;20488;-70
2022/09/13 01:58:04;;;;;;;8.90;7.07;;;;;;;18.65;100.00;100929.97;5079679;28;20057;-70
2022/09/13 02:00:38;;;;;;;11.13;6.80;;;;;;;18.66;100.00;100928.19;5077748;28;20501;-70
2022/09/13 02:03:15;;;;;;;8.82;6.88;;;;;;;18.65;100.00;100923.75;5071240;28;20020;-70
2022/09/13 02:05:50;;;;;;;8.43;6.75;;;;;;;18.65;100.00;100929.97;5076928;28;20440;-70
2022/09/13 02:08:21;;;;;;;8.98;7.07;;;;;;;18.65;100.00;100929.09;5074680;28;20049;-71
2022/09/13 02:10:53;;;;;;;9.52;6.70;;;;;;;18.64;100.00;100925.56;5083884;28;20037;-70
2022/09/13 02:13:23;;;;;;;10.18;7.30;;;;;;;18.62;100.00;100924.69;5075700;28;20048;-69
2022/09/13 02:15:56;;;;;;;14.25;7.80;;;;;;;18.62;100.00;100921.16;5073096;28;20889;-69
2022/09/13 02:18:29;;;;;;;9.93;7.30;;;;;;;18.63;100.00;100926.44;5087424;28;20024;-70
2022/09/13 02:21:00;;;;;;;9.75;7.45;;;;;;;18.63;100.00;100920.25;5074351;28;20035;-69
2022/09/13 02:23:33;;;;;;;8.25;6.45;;;;;;;18.59;100.00;100927.41;5076144;28;20016;-69
2022/09/13 02:26:00;;;;;;;13.23;8.27;;;;;;;18.55;100.00;100928.34;5083533;28;20028;-70
2022/09/13 02:28:35;;;;;;;13.73;8.20;;;;;;;18.55;100.00;100933.69;5075989;28;20036;-70
2022/09/13 02:31:06;;;;;;;13.48;7.07;;;;;;;18.55;100.00;100928.34;5072565;28;20029;-70
2022/09/13 02:33:47;;;;;;;15.02;7.88;;;;;;;18.54;100.00;100927.47;5068111;28;20028;-70
2022/09/13 02:36:18;;;;;;;12.70;7.68;;;;;;;18.52;100.00;100929.28;5078657;28;20028;-70
2022/09/13 02:38:51;;;;;;;9.43;7.95;;;;;;;18.50;100.00;100925.78;5062116;28;20107;-70
2022/09/13 02:41:20;;;;;;;11.32;8.18;;;;;;;18.51;100.00;100927.50;5078611;28;20037;-70
2022/09/13 02:43:51;;;;;;;10.52;7.90;;;;;;;18.53;100.00;100930.19;5085037;28;20027;-70
2022/09/13 02:46:54;;;;;;;11.13;8.25;;;;;;;18.51;100.00;100922.19;5073804;28;20384;-70
2022/09/13 02:49:40;;;;;;;13.77;8.77;;;;;;;18.49;100.00;100923.13;5058788;28;20100;-70
2022/09/13 02:52:08;;;;;;;17.00;8.45;;;;;;;18.48;100.00;100927.56;5079655;28;20036;-70
2022/09/13 02:54:33;;;;;;;15.27;8.35;;;;;;;18.49;100.00;100929.31;5078564;28;20027;-69
2022/09/13 02:57:12;;;;;;;13.35;8.40;;;;;;;18.47;100.00;100931.13;5080765;28;20032;-70
2022/09/13 02:59:37;;;;;;;12.93;8.73;;;;;;;18.47;100.00;100931.13;5080303;28;20442;-70
2022/09/13 03:02:09;;;;;;;13.25;7.93;;;;;;;18.48;100.00;100937.34;5076697;28;20020;-71
2022/09/13 03:04:35;;;;;;;13.55;8.48;;;;;;;18.46;100.00;100934.72;5083812;28;20082;-71
2022/09/13 03:07:03;;;;;;;10.30;7.75;;;;;;;18.46;100.00;100934.72;5075915;28;20478;-70
2022/09/13 03:09:29;;;;;;;14.90;8.85;;;;;;;18.45;100.00;100932.94;5075607;28;20375;-71
2022/09/13 03:12:36;;;;;;;11.70;8.32;;;;;;;18.47;100.00;100935.59;5074221;28;20040;-70
2022/09/13 03:15:28;;;;;;;11.07;8.10;;;;;;;18.45;100.00;100927.63;5072667;28;20077;-71
2022/09/13 03:18:02;;;;;;;10.88;8.35;;;;;;;18.45;100.00;100927.63;5066363;28;20024;-69
2022/09/13 03:20:56;;;;;;;10.93;7.63;;;;;;;18.46;100.00;100934.72;5073606;28;20409;-70
2022/09/13 03:23:41;;;;;;;10.13;8.05;;;;;;;18.44;100.00;100933.84;5073883;28;20058;-70
2022/09/13 03:26:13;;;;;;;13.48;8.07;;;;;;;18.42;100.00;100925.00;5076589;28;20105;-70
2022/09/13 03:29:16;;;;;;;14.30;8.93;;;;;;;18.42;100.00;100933.00;5054402;28;20024;-71
2022/09/13 03:32:06;;;;;;;13.00;8.75;;;;;;;18.41;100.00;100933.91;5070663;28;20399;-71
2022/09/13 03:34:41;;;;;;;11.60;9.05;;;;;;;18.41;100.00;100931.22;5067509;28;20020;-71
2022/09/13 03:37:16;;;;;;;13.98;9.27;;;;;;;18.38;100.00;100933.94;5070907;28;20341;-70
2022/09/13 03:39:48;;;;;;;15.80;9.43;;;;;;;18.36;100.00;100938.41;5086029;28;20475;-71
2022/09/13 03:42:29;;;;;;;12.70;8.73;;;;;;;18.35;100.00;100939.28;5085495;28;20020;-70
2022/09/13 03:44:56;;;;;;;20.02;9.77;;;;;;;18.40;100.00;100939.25;5073720;28;20036;-71
2022/09/13 03:47:25;;;;;;;10.77;8.43;;;;;;;18.41;100.00;100936.56;5073448;28;20103;-71
2022/09/13 03:49:52;;;;;;;12.95;9.10;;;;;;;18.39;100.00;100941.00;5073708;28;20099;-70
2022/09/13 03:52:18;;;;;;;15.18;10.40;;;;;;;18.36;100.00;100933.06;5076295;28;20064;-71
2022/09/13 03:54:44;;;;;;;11.90;9.02;;;;;;;18.34;100.00;100937.56;5073459;28;20028;-70
2022/09/13 03:57:16;;;;;;;14.75;9.10;;;;;;;18.32;100.00;100931.34;5084682;28;20103;-71
2022/09/13 03:59:46;;;;;;;12.60;9.70;;;;;;;18.31;100.00;100929.59;5077530;28;20016;-70
2022/09/13 04:02:12;;;;;;;14.23;10.00;;;;;;;18.29;100.00;100931.41;5060021;28;20024;-70
2022/09/13 04:04:41;;;;;;;14.68;9.55;;;;;;;18.25;100.00;100935.03;5078457;28;20032;-71
2022/09/13 04:07:08;;;;;;;13.02;9.27;;;;;;;18.22;100.00;100930.63;5069775;28;20024;-71
2022/09/13 04:09:33;;;;;;;15.57;9.40;;;;;;;18.18;100.00;100929.75;5080628;28;20040;-71
2022/09/13 04:11:59;;;;;;;17.50;11.27;;;;;;;18.18;100.00;100932.44;5072948;28;20024;-71
2022/09/13 04:14:25;;;;;;;14.27;11.13;;;;;;;18.17;100.00;100932.44;5072518;28;20351;-71
2022/09/13 04:16:55;;;;;;;15.95;11.98;;;;;;;18.13;100.00;100934.25;5072945;28;20036;-70
2022/09/13 04:19:21;;;;;;;16.65;11.05;;;;;;;18.11;100.00;100935.19;5072033;28;20025;-71
2022/09/13 04:21:50;;;;;;;17.67;11.52;;;;;;;18.07;100.00;100937.03;5072792;28;20107;-71
2022/09/13 04:24:17;;;;;;;18.40;11.20;;;;;;;18.00;100.00;100935.31;5072018;28;20024;-71
2022/09/13 04:26:53;;;;;;;18.55;11.30;;;;;;;17.96;100.00;100933.59;5073166;28;20487;-71
2022/09/13 04:29:19;;;;;;;15.27;11.23;;;;;;;17.91;100.00;100940.75;5072511;28;20032;-71
2022/09/13 04:31:45;;;;;;;18.38;12.60;;;;;;;17.86;100.00;100946.13;5069984;28;20041;-71
2022/09/13 04:34:10;;;;;;;19.27;11.57;;;;;;;17.80;100.00;100944.41;5071776;28;20021;-70
2022/09/13 04:36:36;;;;;;;16.65;12.45;;;;;;;17.77;100.00;100949.78;5071546;28;20475;-69
2022/09/13 04:39:02;;;;;;;14.82;10.35;;;;;;;17.75;100.00;100950.69;5077196;28;20024;-70
2022/09/13 04:41:28;;;;;;;20.52;13.18;;;;;;;17.75;100.00;100959.53;5080097;28;20043;-70
2022/09/13 04:43:53;;;;;;;19.90;12.38;;;;;;;17.74;100.00;100956.91;5071859;28;20032;-69
2022/09/13 04:46:18;;;;;;;18.08;12.50;;;;;;;17.69;100.00;100962.28;5085474;28;20058;-70
2022/09/13 04:48:50;;;;;;;17.77;12.98;;;;;;;17.68;100.00;100956.06;5072093;28;20112;-69
2022/09/13 04:51:17;;;;;;;18.20;13.00;;;;;;;17.68;100.00;100955.19;5077708;28;20032;-70
2022/09/13 04:53:43;;;;;;;20.35;13.95;;;;;;;17.69;100.00;100962.28;5057311;28;20072;-70
2022/09/13 04:56:14;;;;;;;24.45;15.35;;;;;;;17.70;100.00;100964.94;5070350;28;20048;-70
2022/09/13 04:58:39;;;;;;;39.35;20.45;;;;;;;17.75;100.00;100967.53;5076422;28;20115;-69
2022/09/13 05:01:07;;;;;;;23.85;16.50;;;;;;;17.78;100.00;100964.81;5074496;28;20107;-69
2022/09/13 05:03:34;;;;;;;25.92;16.75;;;;;;;17.80;100.00;100955.06;5070275;28;20028;-70
2022/09/13 05:06:02;;;;;;;27.58;16.33;;;;;;;17.89;100.00;100959.38;5071664;28;20021;-67
2022/09/13 05:08:27;;;;;;;27.77;16.50;;;;;;;17.89;100.00;100962.03;5074805;28;20056;-67
2022/09/13 05:10:53;;;;;;;25.63;14.85;;;;;;;17.91;100.00;100956.72;5075313;28;20476;-67
2022/09/13 05:13:18;;;;;;;30.33;16.77;;;;;;;17.91;100.00;100965.59;5075924;28;20021;-69
2022/09/13 05:15:43;;;;;;;27.98;15.45;;;;;;;17.92;100.00;100969.16;5058339;28;20025;-69
2022/09/13 05:18:09;;;;;;;24.42;15.90;;;;;;;17.94;100.00;100962.03;5073483;28;20032;-68
2022/09/13 05:20:34;;;;;;;21.38;14.40;;;;;;;17.95;100.00;100969.13;5075948;28;20020;-69
2022/09/13 05:23:00;;;;;;;29.83;15.13;;;;;;;17.97;100.00;100973.53;5074914;28;20425;-71
2022/09/13 05:25:25;;;;;;;22.45;15.52;;;;;;;18.02;100.00;100968.16;5076870;28;20069;-69
2022/09/13 05:27:50;;;;;;;27.67;16.02;;;;;;;18.03;100.00;100965.47;5072933;28;20029;-70
2022/09/13 05:30:16;;;;;;;25.60;14.45;;;;;;;18.07;100.00;100963.66;5076001;28;20107;-70
2022/09/13 05:32:41;;;;;;;26.48;17.08;;;;;;;18.10;100.00;100968.94;5075873;28;20016;-70
2022/09/13 05:35:07;;;;;;;24.73;16.05;;;;;;;18.12;100.00;100977.81;5076200;28;20035;-71
2022/09/13 05:37:32;;;;;;;26.80;16.20;;;;;;;18.15;100.00;100983.06;5075551;28;20024;-70
2022/09/13 05:39:58;;;;;;;26.42;16.38;;;;;;;18.17;100.00;100980.38;5073801;28;20121;-72
2022/09/13 05:42:23;;;;;;;26.08;16.05;;;;;;;18.19;100.00;100979.47;5076936;28;20020;-71
2022/09/13 05:44:48;;;;;;;23.25;16.20;;;;;;;18.24;100.00;100984.72;5082583;28;20032;-70
2022/09/13 05:47:14;;;;;;;23.83;15.10;;;;;;;18.28;100.00;100978.47;5096038;28;20028;-70
2022/09/13 05:49:39;;;;;;;22.50;14.75;;;;;;;18.36;100.00;100989.03;5081578;28;20024;-70
2022/09/13 05:52:04;;;;;;;20.70;13.48;;;;;;;18.40;100.00;100988.06;5074526;28;20024;-71
2022/09/13 05:54:30;;;;;;;17.52;13.13;;;;;;;18.45;100.00;100980.00;5080233;28;20024;-71
2022/09/13 05:56:56;;;;;;;20.23;12.30;;;;;;;18.51;100.00;100980.81;5079646;28;20064;-70
2022/09/13 05:59:22;;;;;;;20.02;11.93;;;;;;;18.55;100.00;100984.31;5082445;28;20488;-70
2022/09/13 06:01:47;;;;;;;20.45;12.32;;;;;;;18.58;100.00;100989.59;5074478;28;20021;-70
2022/09/13 06:04:13;;;;;;;17.42;11.88;;;;;;;18.60;100.00;100987.81;5072472;28;20027;-71
2022/09/13 06:06:38;;;;;;;17.98;11.05;;;;;;;18.66;100.00;100994.81;5076432;28;20108;-70
2022/09/13 06:09:05;;;;;;;15.65;10.68;;;;;;;18.69;100.00;100990.34;5062133;28;20048;-70
2022/09/13 06:11:31;;;;;;;13.30;9.25;;;;;;;18.71;100.00;100992.97;5069488;28;20028;-70
2022/09/13 06:13:56;;;;;;;14.35;9.65;;;;;;;18.74;100.00;100997.38;5074120;28;20024;-71
2022/09/13 06:16:22;;;;;;;14.98;9.63;;;;;;;18.75;100.00;100997.34;5078197;28;20462;-71
2022/09/13 06:18:47;;;;;;;12.98;9.48;;;;;;;18.77;100.00;100992.88;5072732;28;20020;-71
2022/09/13 06:21:19;;;;;;;14.27;8.65;;;;;;;18.79;100.00;101001.75;5073664;28;20024;-71
2022/09/13 06:23:50;;;;;;;12.55;7.85;;;;;;;18.81;100.00;101005.25;5074141;28;20029;-71
2022/09/13 06:26:18;;;;;;;14.32;8.90;;;;;;;18.82;100.00;101004.34;5072751;28;20077;-71
2022/09/13 06:28:51;;;;;;;14.20;7.80;;;;;;;18.84;100.00;101005.22;5073575;28;20025;-72
2022/09/13 06:31:18;;;;;;;13.23;8.00;;;;;;;18.85;100.00;101001.63;5056957;28;20032;-71
2022/09/13 06:33:44;;;;;;;12.45;7.65;;;;;;;18.86;100.00;101000.72;5074705;28;21298;-71
2022/09/13 06:36:16;;;;;;;13.32;7.55;;;;;;;18.91;100.00;101002.47;5074813;28;20027;-71
2022/09/13 06:38:43;;;;;;;10.88;7.45;;;;;;;18.94;100.00;101000.66;5073740;28;20036;-71
2022/09/13 06:41:11;;;;;;;11.93;7.28;;;;;;;19.03;100.00;101004.94;5073458;28;20021;-70
2022/09/13 06:43:37;;;;;;;10.50;6.10;;;;;;;19.12;100.00;101004.81;5073259;28;20054;-70
2022/09/13 06:46:08;;;;;;;8.93;5.03;;;;;;;19.21;100.00;101004.66;5074145;28;20525;-71
2022/09/13 06:48:37;;;;;;;9.75;5.55;;;;;;;19.32;100.00;101006.28;5073659;28;20112;-71
2022/09/13 06:51:05;;;;;;;7.70;4.00;;;;;;;19.41;100.00;101003.44;5072561;28;20055;-71
2022/09/13 06:53:32;;;;;;;7.15;4.53;;;;;;;19.48;100.00;100994.41;5074583;28;20468;-70
2022/09/13 06:56:07;;;;;;;4.55;3.25;;;;;;;19.58;100.00;100995.13;5074452;28;20032;-71
2022/09/13 06:58:33;;;;;;;5.40;2.95;;;;;;;19.65;100.00;100998.56;5074450;28;20036;-71
2022/09/13 07:01:11;;;;;;;3.33;2.90;;;;;;;19.74;100.00;100993.06;5073121;28;20019;-70
2022/09/13 07:03:38;;;;;;;5.60;3.78;;;;;;;19.79;100.00;101007.19;5071528;28;20090;-72
2022/09/13 07:06:17;;;;;;;6.53;3.10;;;;;;;19.81;100.00;101005.41;5055908;28;20067;-71
2022/09/13 07:08:44;;;;;;;5.85;2.58;;;;;;;19.83;100.00;101008.03;5073992;28;20070;-71
2022/09/13 07:11:12;;;;;;;6.70;2.30;;;;;;;19.76;100.00;101006.38;5072998;28;20060;-72
2022/09/13 07:13:37;;;;;;;5.82;2.80;;;;;;;19.64;100.00;101007.47;5074015;28;20082;-71
2022/09/13 07:16:05;;;;;;;10.73;2.72;;;;;;;19.60;100.00;101000.44;5074170;28;20025;-72
2022/09/13 07:18:31;;;;;;;11.77;2.67;;;;;;;19.55;100.00;101009.41;5077243;28;20449;-72
2022/09/13 07:21:05;;;;;;;7.32;2.25;;;;;;;19.52;100.00;101012.13;5073147;28;20021;-72
2022/09/13 07:23:31;;;;;;;8.85;3.15;;;;;;;19.54;100.00;101017.44;5074252;28;20029;-72
2022/09/13 07:26:01;;;;;;;9.10;2.60;;;;;;;19.57;100.00;101009.38;5073678;28;20107;-72
2022/09/13 07:28:32;;;;;;;4.95;2.65;;;;;;;19.59;100.00;101012.91;5073589;28;20040;-72
2022/09/13 07:31:14;;;;;;;3.72;2.67;;;;;;;19.64;100.00;101010.13;5072365;28;20522;-71
2022/09/13 07:33:40;;;;;;;4.35;2.17;;;;;;;19.64;100.00;101012.81;5059966;28;20417;-71
2022/09/13 07:36:07;;;;;;;8.57;2.80;;;;;;;19.65;100.00;101010.09;5075612;28;20040;-71
2022/09/13 07:38:34;;;;;;;5.00;2.97;;;;;;;19.70;100.00;101012.72;5075820;28;20077;-72
2022/09/13 07:41:01;;;;;;;6.18;2.67;;;;;;;19.71;100.00;101017.16;5074197;28;20051;-72
2022/09/13 07:43:27;;;;;;;7.20;2.60;;;;;;;19.76;100.00;101020.59;5073431;28;20487;-72
2022/09/13 07:46:03;;;;;;;5.68;3.00;;;;;;;19.79;100.00;101019.66;5073667;28;20380;-72
2022/09/13 07:48:31;;;;;;;7.57;2.35;;;;;;;19.85;100.00;101015.13;5072250;28;20464;-72
2022/09/13 07:51:21;;;;;;;3.13;1.83;;;;;;;19.92;100.00;101017.69;5073253;28;20089;-72
2022/09/13 07:53:48;;;;;;;6.45;1.95;;;;;;;20.00;100.00;101021.06;5072476;28;20412;-71
2022/09/13 07:56:19;;;;;;;4.55;2.40;;;;;;;20.05;100.00;101029.88;5072998;28;20032;-71
2022/09/13 07:58:46;;;;;;;4.70;2.17;;;;;;;20.10;100.00;101027.97;5073153;28;20028;-71
2022/09/13 08:01:18;;;;;;;4.93;2.00;;;;;;;20.18;100.00;101026.06;5071441;28;20038;-72
2022/09/13 08:03:49;;;;;;;3.40;1.80;;;;;;;20.25;100.00;101023.25;5072112;28;20024;-72
2022/09/13 08:06:14;;;;;;;5.85;1.73;;;;;;;20.34;100.00;101031.06;5073276;28;20543;-72
2022/09/13 08:08:39;;;;;;;5.43;1.67;;;;;;;20.39;100.00;101024.72;5072936;28;20131;-72
2022/09/13 08:11:06;;;;;;;6.50;1.63;;;;;;;20.43;100.00;101025.53;5072919;28;20025;-71
2022/09/13 08:13:31;;;;;;;3.30;1.40;;;;;;;20.42;100.00;101026.44;5072652;28;20021;-71
2022/09/13 08:16:01;;;;;;;2.50;1.33;;;;;;;20.41;100.00;101029.16;5073737;28;20046;-73
2022/09/13 08:18:27;;;;;;;2.13;1.60;;;;;;;20.41;100.00;101038.03;5071602;28;20032;-70
2022/09/13 08:20:56;;;;;;;5.25;1.20;;;;;;;20.44;100.00;101037.97;5066150;28;20465;-71
2022/09/13 08:23:22;;;;;;;4.10;1.50;;;;;;;20.47;100.00;101040.59;5072960;28;20070;-71
2022/09/13 08:25:47;;;;;;;8.77;1.13;;;;;;;20.49;100.00;101046.78;5072493;28;20024;-71
2022/09/13 08:28:17;;;;;;;1.83;0.95;;;;;;;20.52;100.00;101043.16;5054830;28;20032;-71
2022/09/13 08:30:43;;;;;;;3.13;1.02;;;;;;;20.55;100.00;101043.06;5072454;28;20040;-71
2022/09/13 08:33:10;;;;;;;4.93;1.00;;;;;;;20.52;100.00;101046.72;5072928;28;20036;-70
2022/09/13 08:35:37;;;;;;;1.80;1.05;;;;;;;20.55;100.00;101041.31;5054451;28;20040;-70
2022/09/13 08:38:04;;;;;;;4.68;1.40;;;;;;;20.57;100.00;101041.25;5071419;28;20078;-70
2022/09/13 08:40:33;;;;;;;5.70;1.85;;;;;;;20.54;100.00;101050.22;5091739;28;20462;-70
2022/09/13 08:43:05;;;;;;;4.72;1.45;;;;;;;20.59;100.00;101041.22;5078185;28;20056;-70
2022/09/13 08:45:31;;;;;;;6.43;0.95;;;;;;;20.69;100.00;101049.03;5071595;28;20086;-71
2022/09/13 08:48:19;;;;;;;2.65;0.90;;;;;;;20.84;100.00;101049.63;5072178;28;20028;-71
2022/09/13 08:50:47;;;;;;;4.40;1.10;;;;;;;20.96;100.00;101045.75;5071523;28;20135;-70
2022/09/13 08:53:25;;;;;;;4.63;1.33;;;;;;;20.96;100.00;101056.47;5072660;28;20383;-70
2022/09/13 08:55:53;;;;;;;2.95;1.25;;;;;;;20.98;100.00;101062.69;5072003;28;20032;-71
2022/09/13 08:58:38;;;;;;;6.78;1.20;;;;;;;20.97;100.00;101069.84;5072577;28;20048;-71
2022/09/13 09:01:24;;;;;;;0.80;0.73;;;;;;;21.01;100.00;101065.28;5073383;28;20031;-71
2022/09/13 09:04:23;;;;;;;5.47;0.80;;;;;;;21.07;100.00;101059.78;5072418;28;20033;-70
2022/09/13 09:06:49;;;;;;;3.50;1.13;;;;;;;21.07;100.00;101067.81;5071000;28;20074;-70
2022/09/13 09:09:20;;;;;;;5.63;1.17;;;;;;;21.04;100.00;101068.75;5071960;28;20492;-70
2022/09/13 09:12:03;;;;;;;3.67;1.20;;;;;;;21.01;100.00;101070.63;5071860;28;20032;-70
2022/09/13 09:14:45;;;;;;;2.25;0.65;;;;;;;21.02;100.00;101062.56;5071670;28;20048;-70
2022/09/13 09:17:20;;;;;;;3.88;1.40;;;;;;;21.02;100.00;101059.00;5060432;28;20107;-70
2022/09/13 09:19:52;;;;;;;5.60;0.75;;;;;;;21.09;100.00;101057.94;5072275;28;20078;-69
2022/09/13 09:22:20;;;;;;;5.28;0.88;;;;;;;21.13;100.00;101054.28;5072898;28;20368;-69
2022/09/13 09:24:56;;;;;;;4.85;1.10;;;;;;;21.15;100.00;101049.78;5072682;28;20086;-70
2022/09/13 09:27:22;;;;;;;5.88;1.10;;;;;;;21.17;100.00;101055.97;5071937;28;20032;-71
2022/09/13 09:29:52;;;;;;;12.18;1.23;;;;;;;21.33;100.00;101055.59;5072282;28;20025;-71
2022/09/13 09:32:38;;;;;;;6.50;1.00;;;;;;;21.51;100.00;101060.50;5071315;28;20025;-71
2022/09/13 09:35:26;;;;;;;4.45;0.95;;;;;;;21.64;100.00;101057.53;5078816;28;20115;-70
2022/09/13 09:38:09;;;;;;;8.27;1.20;;;;;;;21.68;100.00;101061.88;5069218;28;20072;-71
2022/09/13 09:40:37;;;;;;;3.63;0.75;;;;;;;21.64;100.00;101060.22;5072503;28;20392;-71
2022/09/13 09:43:14;;;;;;;7.43;1.25;;;;;;;21.63;100.00;101062.00;5072403;28;20021;-70
2022/09/13 09:45:41;;;;;;;4.72;1.10;;;;;;;21.63;100.00;101058.44;5071826;28;20032;-71
2022/09/13 09:48:13;;;;;;;3.67;0.88;;;;;;;21.62;100.00;101057.53;5074331;28;20399;-71
2022/09/13 09:50:46;;;;;;;6.65;1.25;;;;;;;21.67;100.00;101062.81;5089974;28;20491;-71
2022/09/13 09:53:27;;;;;;;3.42;1.00;;;;;;;21.91;100.00;101058.59;5073691;28;20043;-70
2022/09/13 09:55:59;;;;;;;5.72;1.30;;;;;;;22.15;100.00;101057.03;5074613;28;20037;-71
2022/09/13 09:58:54;;;;;;;4.60;0.98;;;;;;;22.58;100.00;101054.91;5075669;28;20033;-70
2022/09/13 10:01:19;;;;;;;4.97;1.20;;;;;;;22.81;100.00;101053.34;5056843;28;20044;-70
2022/09/13 10:04:17;;;;;;;4.43;1.00;;;;;;;23.00;100.00;101062.56;5075751;28;20377;-70
2022/09/13 10:06:44;;;;;;;6.03;0.95;;;;;;;23.10;100.00;101052.44;5075696;28;20079;-70
2022/09/13 10:09:13;;;;;;;4.32;1.30;;;;;;;23.22;100.00;101057.41;5075504;28;20075;-71
2022/09/13 10:11:50;;;;;;;3.03;0.88;;;;;;;23.41;100.00;101062.16;5077599;28;20029;-70
2022/09/13 10:14:35;;;;;;;2.60;0.98;;;;;;;23.64;100.00;101055.13;5074785;28;20545;-70
2022/09/13 10:17:24;;;;;;;2.70;1.10;;;;;;;23.74;100.00;101056.59;5075594;28;20038;-70
2022/09/13 10:20:00;;;;;;;6.40;1.20;;;;;;;23.82;100.00;101050.91;5075406;28;20099;-70
2022/09/13 10:22:26;;;;;;;6.13;1.10;;;;;;;23.92;100.00;101048.84;5075356;28;20024;-70
2022/09/13 10:24:52;;;;;;;2.28;0.65;;;;;;;23.92;100.00;101046.16;5075380;28;20419;-70
2022/09/13 10:27:27;;;;;;;3.55;1.10;;;;;;;23.93;100.00;101043.41;5095821;28;20024;-71
2022/09/13 10:29:58;;;;;;;6.28;1.20;;;;;;;24.19;100.00;101045.13;5077185;28;20064;-70
2022/09/13 10:32:24;;;;;;;1.80;0.73;;;;;;;24.38;100.00;101044.44;5083010;28;20024;-71
2022/09/13 10:34:51;;;;;;;2.80;1.00;;;;;;;24.45;100.00;101040.56;5095571;28;20032;-71
2022/09/13 10:37:21;;;;;;;2.67;0.77;;;;;;;24.47;100.00;101043.19;5080578;28;20403;-70
2022/09/13 10:40:16;;;;;;;6.47;1.50;;;;;;;24.56;100.00;101032.94;5075451;28;20345;-70
2022/09/13 10:42:54;;;;;;;7.70;1.45;;;;;;;24.53;99.62;101038.44;5071214;28;20041;-70
2022/09/13 10:45:26;;;;;;;4.07;1.42;;;;;;;24.49;100.00;101030.56;5065364;28;20093;-70
2022/09/13 10:47:54;;;;;;;4.95;1.20;;;;;;;24.47;100.00;101027.94;5075010;28;20031;-70
2022/09/13 10:50:20;;;;;;;3.72;1.00;;;;;;;24.39;100.00;101030.94;5074989;28;20099;-70
2022/09/13 10:52:52;;;;;;;7.63;0.90;;;;;;;24.63;100.00;101035.44;5074929;28;20123;-70
2022/09/13 10:55:18;;;;;;;2.58;0.80;;;;;;;24.89;97.81;101040.69;5075187;28;20051;-71
2022/09/13 10:57:48;;;;;;;3.97;0.90;;;;;;;25.15;99.68;101040.53;5074237;28;20465;-70
2022/09/13 11:00:33;;;;;;;5.18;0.95;;;;;;;25.32;94.09;101045.22;5073826;28;20029;-71
2022/09/13 11:03:18;;;;;;;6.88;1.40;;;;;;;25.49;91.05;101052.59;5074123;28;20029;-70
2022/09/13 11:06:08;;;;;;;2.85;0.73;;;;;;;25.45;92.09;101046.50;5073407;28;20052;-70
2022/09/13 11:09:02;;;;;;;3.38;0.68;;;;;;;25.57;81.71;101047.75;5073921;28;20044;-71
2022/09/13 11:11:41;;;;;;;5.93;0.70;;;;;;;25.28;86.25;101043.59;5067063;28;20107;-71
2022/09/13 11:14:22;;;;;;;3.58;1.00;;;;;;;24.91;88.33;101049.56;5074573;28;20031;-70
2022/09/13 11:17:07;;;;;;;3.10;0.63;;;;;;;24.72;91.65;101051.22;5074539;28;20061;-70
2022/09/13 11:19:58;;;;;;;1.95;0.70;;;;;;;24.82;89.64;101043.66;5074793;28;20028;-70
2022/09/13 11:22:38;;;;;;;2.30;0.77;;;;;;;25.17;93.10;101038.66;5074454;28;20028;-70
2022/09/13 11:25:21;;;;;;;2.58;0.60;;;;;;;25.34;80.45;101033.47;5075348;28;20027;-69
2022/09/13 11:27:59;;;;;;;2.85;0.80;;;;;;;25.39;87.57;101027.88;5054291;28;20119;-69
2022/09/13 11:30:30;;;;;;;3.70;0.73;;;;;;;25.20;79.86;101027.75;5072884;28;20346;-68
2022/09/13 11:32:58;;;;;;;1.30;0.57;;;;;;;25.36;80.27;101034.28;5073681;28;20476;-69